createdAt,value
2018-07-25T00:01:47.142Z,21.25
2018-07-25T00:04:18.162Z,21.26
2018-07-25T00:06:49.369Z,21.25
2018-07-25T00:09:20.501Z,21.26
2018-07-25T00:11:52.355Z,21.12
2018-07-25T00:14:24.872Z,21.07
2018-07-25T00:16:56.985Z,20.94
2018-07-25T00:19:29.177Z,21.03
2018-07-25T00:22:00.312Z,20.85
2018-07-25T00:24:31.376Z,20.80
2018-07-25T00:27:03.038Z,20.87
2018-07-25T00:29:34.126Z,20.84
2018-07-25T00:32:05.525Z,20.73
2018-07-25T00:34:36.666Z,20.68
2018-07-25T00:37:07.753Z,20.68
2018-07-25T00:39:39.089Z,20.70
2018-07-25T00:42:11.466Z,20.63
2018-07-25T00:44:42.959Z,20.62
2018-07-25T00:47:15.064Z,20.54
2018-07-25T00:49:47.057Z,20.61
2018-07-25T00:52:18.084Z,20.74
2018-07-25T00:54:49.372Z,20.79
2018-07-25T00:57:20.698Z,20.59
2018-07-25T00:59:51.909Z,20.66
2018-07-25T01:02:25.249Z,20.66
2018-07-25T01:04:56.312Z,20.65
2018-07-25T01:07:27.348Z,20.66
2018-07-25T01:09:58.704Z,20.66
2018-07-25T01:12:31.374Z,20.58
2018-07-25T01:15:02.587Z,20.47
2018-07-25T01:17:33.793Z,20.55
2018-07-25T01:20:05.102Z,20.61
2018-07-25T01:22:36.384Z,20.56
2018-07-25T01:25:07.518Z,20.52
2018-07-25T01:27:39.050Z,20.51
2018-07-25T01:30:10.143Z,20.51
2018-07-25T01:32:41.106Z,20.46
2018-07-25T01:35:12.364Z,20.51
2018-07-25T01:37:43.477Z,20.49
2018-07-25T01:40:14.728Z,20.54
2018-07-25T01:42:47.881Z,20.53
2018-07-25T01:45:19.204Z,20.60
2018-07-25T01:47:50.272Z,20.58
2018-07-25T01:50:21.198Z,20.48
2018-07-25T01:52:52.205Z,20.48
2018-07-25T01:55:23.164Z,20.50
2018-07-25T01:57:54.387Z,20.49
2018-07-25T02:00:25.560Z,20.52
2018-07-25T02:02:56.592Z,20.36
2018-07-25T02:05:27.675Z,20.34
2018-07-25T02:07:59.554Z,20.32
2018-07-25T02:10:31.062Z,20.33
2018-07-25T02:13:02.921Z,20.38
2018-07-25T02:15:35.135Z,20.26
2018-07-25T02:18:06.353Z,20.32
2018-07-25T02:20:37.714Z,20.33
2018-07-25T02:23:09.468Z,20.30
2018-07-25T02:25:40.508Z,20.35
2018-07-25T02:28:12.497Z,20.27
2018-07-25T02:30:43.745Z,20.28
2018-07-25T02:33:15.930Z,20.29
2018-07-25T02:35:47.544Z,20.13
2018-07-25T02:38:18.626Z,20.12
2018-07-25T02:40:50.094Z,20.05
2018-07-25T02:43:22.263Z,20.08
2018-07-25T02:45:54.503Z,20.19
2018-07-25T02:48:25.739Z,20.17
2018-07-25T02:50:57.789Z,20.23
2018-07-25T02:53:28.987Z,20.29
2018-07-25T02:56:00.173Z,20.27
2018-07-25T02:58:31.376Z,20.33
2018-07-25T03:01:02.247Z,20.44
2018-07-25T03:03:34.150Z,20.41
2018-07-25T03:06:05.239Z,20.52
2018-07-25T03:08:36.221Z,20.37
2018-07-25T03:11:07.645Z,20.29
2018-07-25T03:13:39.645Z,20.12
2018-07-25T03:16:10.775Z,20.27
2018-07-25T03:18:41.901Z,20.30
2018-07-25T03:21:12.848Z,20.37
2018-07-25T03:23:43.971Z,20.38
2018-07-25T03:26:15.139Z,20.40
2018-07-25T03:28:47.399Z,20.30
2018-07-25T03:31:18.536Z,20.47
2018-07-25T03:33:50.038Z,20.47
2018-07-25T03:36:20.959Z,20.57
2018-07-25T03:38:51.903Z,20.55
2018-07-25T03:41:23.228Z,20.52
2018-07-25T03:43:55.126Z,20.67
2018-07-25T03:46:26.480Z,20.59
2018-07-25T03:48:57.645Z,20.60
2018-07-25T03:51:28.827Z,20.74
2018-07-25T03:53:59.872Z,20.78
2018-07-25T03:56:30.968Z,20.80
2018-07-25T03:59:02.809Z,20.80
2018-07-25T04:01:34.706Z,20.83
2018-07-25T04:04:05.924Z,20.94
2018-07-25T04:06:36.924Z,21.01
2018-07-25T04:09:10.139Z,21.10
2018-07-25T04:11:41.264Z,21.16
2018-07-25T04:14:14.064Z,21.11
2018-07-25T04:16:45.038Z,21.10
2018-07-25T04:19:16.306Z,21.16
2018-07-25T04:21:47.497Z,21.23
2018-07-25T04:24:18.643Z,21.37
2018-07-25T04:26:49.702Z,21.20
2018-07-25T04:29:21.063Z,21.29
2018-07-25T04:31:52.209Z,21.25
2018-07-25T04:34:23.991Z,21.38
2018-07-25T04:36:55.151Z,21.42
2018-07-25T04:39:26.256Z,21.49
2018-07-25T04:41:57.366Z,21.46
2018-07-25T04:44:29.441Z,21.44
2018-07-25T04:47:00.652Z,21.39
2018-07-25T04:49:32.456Z,21.72
2018-07-25T04:52:03.488Z,21.79
2018-07-25T04:54:35.725Z,21.80
2018-07-25T04:57:07.320Z,21.78
2018-07-25T04:59:40.236Z,21.74
2018-07-25T05:02:11.635Z,21.89
2018-07-25T05:04:43.671Z,21.93
2018-07-25T05:07:16.943Z,21.99
2018-07-25T05:09:48.051Z,21.93
2018-07-25T05:12:19.214Z,22.00
2018-07-25T05:14:50.156Z,21.95
2018-07-25T05:17:21.513Z,21.86
2018-07-25T05:19:52.525Z,21.97
2018-07-25T05:22:23.542Z,22.06
2018-07-25T05:24:55.112Z,22.27
2018-07-25T05:27:26.418Z,22.42
2018-07-25T05:29:58.477Z,22.69
2018-07-25T05:32:29.498Z,22.70
2018-07-25T05:35:00.605Z,22.70
2018-07-25T05:37:31.665Z,22.64
2018-07-25T05:40:03.927Z,22.83
2018-07-25T05:42:35.192Z,24.05
2018-07-25T05:45:07.949Z,25.56
2018-07-25T05:47:40.031Z,26.55
2018-07-25T05:50:12.128Z,27.52
2018-07-25T05:52:43.216Z,27.62
2018-07-25T05:55:14.345Z,27.98
2018-07-25T05:57:45.263Z,27.64
2018-07-25T06:00:16.216Z,26.27
2018-07-25T06:02:47.376Z,25.20
2018-07-25T06:05:19.503Z,24.71
2018-07-25T06:07:50.870Z,24.15
2018-07-25T06:10:24.110Z,23.82
2018-07-25T06:12:55.471Z,23.93
2018-07-25T06:15:27.978Z,23.79
2018-07-25T06:17:59.248Z,23.88
2018-07-25T06:20:30.772Z,24.10
2018-07-25T06:23:01.648Z,24.51
2018-07-25T06:25:32.889Z,24.28
2018-07-25T06:28:03.815Z,24.37
2018-07-25T06:30:35.006Z,24.26
2018-07-25T06:33:06.536Z,24.05
2018-07-25T06:35:37.914Z,24.15
2018-07-25T06:38:09.237Z,24.26
2018-07-25T06:40:41.639Z,24.44
2018-07-25T06:43:13.412Z,24.30
2018-07-25T06:45:46.252Z,24.18
2018-07-25T06:48:17.546Z,24.09
2018-07-25T06:50:48.687Z,23.89
2018-07-25T06:53:19.741Z,23.95
2018-07-25T06:55:51.507Z,23.74
2018-07-25T06:58:22.800Z,23.88
2018-07-25T07:00:53.901Z,23.81
2018-07-25T07:03:24.915Z,23.94
2018-07-25T07:05:56.774Z,23.87
2018-07-25T07:08:27.896Z,24.06
2018-07-25T07:10:59.196Z,24.23
2018-07-25T07:13:30.323Z,23.95
2018-07-25T07:16:02.345Z,24.10
2018-07-25T07:18:33.665Z,24.11
2018-07-25T07:21:04.947Z,24.15
2018-07-25T07:23:36.670Z,24.08
2018-07-25T07:26:08.061Z,24.12
2018-07-25T07:28:39.124Z,24.17
2018-07-25T07:31:10.268Z,24.35
2018-07-25T07:33:41.081Z,24.35
2018-07-25T07:36:13.314Z,24.27
2018-07-25T07:38:44.451Z,24.55
2018-07-25T07:41:16.113Z,24.50
2018-07-25T07:43:47.056Z,24.55
2018-07-25T07:46:18.960Z,24.40
2018-07-25T07:48:51.740Z,24.40
2018-07-25T07:51:23.833Z,24.59
2018-07-25T07:53:54.895Z,24.56
2018-07-25T07:56:27.407Z,24.54
2018-07-25T07:58:59.314Z,24.67
2018-07-25T08:01:32.045Z,24.30
2018-07-25T08:04:03.344Z,23.90
2018-07-25T08:06:34.856Z,24.10
2018-07-25T08:09:08.292Z,24.11
2018-07-25T08:11:39.386Z,24.28
2018-07-25T08:14:11.693Z,24.41
2018-07-25T08:16:43.433Z,24.71
2018-07-25T08:19:14.596Z,24.85
2018-07-25T08:21:45.806Z,25.13
2018-07-25T08:24:16.681Z,25.54
2018-07-25T08:26:48.404Z,25.90
2018-07-25T08:29:19.332Z,25.74
2018-07-25T08:31:50.295Z,25.49
2018-07-25T08:34:21.238Z,25.94
2018-07-25T08:36:52.564Z,26.20
2018-07-25T08:39:23.556Z,26.10
2018-07-25T08:41:55.988Z,26.04
2018-07-25T08:44:27.057Z,25.99
2018-07-25T08:46:59.056Z,26.23
2018-07-25T08:49:31.532Z,25.85
2018-07-25T08:52:02.566Z,25.58
2018-07-25T08:54:33.990Z,25.67
2018-07-25T08:57:05.018Z,25.38
2018-07-25T08:59:35.890Z,25.46
2018-07-25T09:02:06.969Z,25.63
2018-07-25T09:04:38.801Z,25.66
2018-07-25T09:07:09.748Z,25.48
2018-07-25T09:09:40.948Z,25.40
2018-07-25T09:12:11.932Z,25.38
2018-07-25T09:14:43.730Z,25.80
2018-07-25T09:17:16.062Z,25.81
2018-07-25T09:19:47.476Z,26.00
2018-07-25T09:22:18.665Z,25.86
2018-07-25T09:24:49.879Z,25.85
2018-07-25T09:27:20.869Z,25.57
2018-07-25T09:29:52.773Z,25.67
2018-07-25T09:32:23.884Z,26.04
2018-07-25T09:34:54.979Z,26.36
2018-07-25T09:37:26.003Z,26.81
2018-07-25T09:39:57.034Z,27.35
2018-07-25T09:42:28.185Z,27.99
2018-07-25T09:44:59.760Z,27.95
2018-07-25T09:47:31.640Z,28.24
2018-07-25T09:50:02.487Z,28.68
2018-07-25T09:52:33.412Z,28.67
2018-07-25T09:55:04.500Z,28.75
2018-07-25T09:57:36.881Z,28.75
2018-07-25T10:00:10.328Z,28.60
2018-07-25T10:02:42.192Z,28.72
2018-07-25T10:05:13.013Z,28.60
2018-07-25T10:07:44.099Z,28.18
2018-07-25T10:10:15.199Z,28.48
2018-07-25T10:12:46.270Z,28.35
2018-07-25T10:15:17.409Z,28.54
2018-07-25T10:17:48.659Z,29.03
2018-07-25T10:20:19.801Z,28.97
2018-07-25T10:22:51.575Z,29.08
2018-07-25T10:25:23.252Z,29.37
2018-07-25T10:27:55.691Z,28.99
2018-07-25T10:30:26.789Z,29.27
2018-07-25T10:32:58.477Z,29.21
2018-07-25T10:35:29.562Z,29.33
2018-07-25T10:38:00.860Z,29.53
2018-07-25T10:40:33.487Z,29.83
2018-07-25T10:43:04.632Z,29.87
2018-07-25T10:45:36.708Z,29.72
2018-07-25T10:48:09.381Z,29.51
2018-07-25T10:50:40.419Z,29.70
2018-07-25T10:53:11.431Z,29.36
2018-07-25T10:55:42.464Z,29.98
2018-07-25T10:58:13.456Z,30.09
2018-07-25T11:00:44.595Z,30.11
2018-07-25T11:03:16.664Z,29.46
2018-07-25T11:05:47.972Z,29.93
2018-07-25T11:08:20.316Z,29.28
2018-07-25T11:10:51.318Z,29.70
2018-07-25T11:13:22.233Z,29.52
2018-07-25T11:15:53.154Z,29.89
2018-07-25T11:18:25.211Z,29.67
2018-07-25T11:20:56.499Z,29.74
2018-07-25T11:23:27.384Z,29.83
2018-07-25T11:25:59.025Z,30.00
2018-07-25T11:28:30.035Z,30.47
2018-07-25T11:31:01.053Z,29.51
2018-07-25T11:33:32.339Z,29.49
2018-07-25T11:36:03.428Z,29.58
2018-07-25T11:38:34.928Z,29.56
2018-07-25T11:41:06.075Z,28.52
2018-07-25T11:43:37.281Z,28.24
2018-07-25T11:46:08.508Z,27.62
2018-07-25T11:48:41.496Z,27.55
2018-07-25T11:51:12.470Z,27.20
2018-07-25T11:53:43.719Z,26.99
2018-07-25T11:56:14.684Z,26.84
2018-07-25T11:58:45.962Z,26.56
2018-07-25T12:01:17.323Z,26.73
2018-07-25T12:03:49.230Z,26.87
2018-07-25T12:06:20.197Z,26.73
2018-07-25T12:08:51.568Z,27.13
2018-07-25T12:11:23.905Z,27.10
2018-07-25T12:13:55.000Z,27.03
2018-07-25T12:16:26.032Z,27.18
2018-07-25T12:18:58.114Z,27.48
2018-07-25T12:21:29.060Z,27.46
2018-07-25T12:24:00.660Z,27.35
2018-07-25T12:26:32.098Z,27.49
2018-07-25T12:29:03.187Z,27.64
2018-07-25T12:31:34.350Z,28.14
2018-07-25T12:34:07.381Z,28.50
2018-07-25T12:36:38.489Z,28.58
2018-07-25T12:39:11.191Z,28.86
2018-07-25T12:41:42.657Z,29.01
2018-07-25T12:44:13.385Z,29.04
2018-07-25T12:46:44.561Z,29.51
2018-07-25T12:49:16.489Z,29.56
2018-07-25T12:51:47.485Z,29.26
2018-07-25T12:54:20.010Z,29.64
2018-07-25T12:56:51.872Z,29.43
2018-07-25T12:59:23.289Z,29.29
2018-07-25T13:01:55.816Z,29.22
2018-07-25T13:04:28.394Z,28.85
2018-07-25T13:06:59.898Z,28.79
2018-07-25T13:09:31.132Z,28.35
2018-07-25T13:12:03.231Z,27.25
2018-07-25T13:14:34.602Z,26.27
2018-07-25T13:17:06.847Z,26.02
2018-07-25T13:19:40.785Z,25.49
2018-07-25T13:22:12.089Z,25.17
2018-07-25T13:24:43.277Z,24.86
2018-07-25T13:27:14.358Z,25.06
2018-07-25T13:29:46.679Z,24.93
2018-07-25T13:32:17.707Z,24.66
2018-07-25T13:34:48.851Z,24.54
2018-07-25T13:37:19.914Z,24.46
2018-07-25T13:39:51.196Z,24.27
2018-07-25T13:42:22.614Z,24.35
2018-07-25T13:44:53.843Z,23.97
2018-07-25T13:47:25.017Z,23.74
2018-07-25T13:49:57.027Z,23.69
2018-07-25T13:52:28.233Z,23.76
2018-07-25T13:54:59.218Z,23.85
2018-07-25T13:57:30.483Z,23.95
2018-07-25T14:00:01.589Z,24.15
2018-07-25T14:02:32.531Z,24.46
2018-07-25T14:05:06.271Z,24.61
2018-07-25T14:07:37.356Z,24.85
2018-07-25T14:10:11.116Z,25.04
2018-07-25T14:12:42.023Z,25.29
2018-07-25T14:15:13.789Z,25.65
2018-07-25T14:17:44.681Z,26.11
2018-07-25T14:20:17.378Z,26.25
2018-07-25T14:22:48.477Z,26.43
2018-07-25T14:25:19.671Z,26.41
2018-07-25T14:27:51.248Z,26.66
2018-07-25T14:30:23.097Z,26.81
2018-07-25T14:32:54.137Z,26.78
2018-07-25T14:35:25.262Z,26.87
2018-07-25T14:37:57.220Z,26.74
2018-07-25T14:40:29.932Z,26.53
2018-07-25T14:43:01.409Z,26.09
2018-07-25T14:45:32.472Z,26.29
2018-07-25T14:48:03.483Z,26.43
2018-07-25T14:50:34.819Z,26.49
2018-07-25T14:53:06.885Z,26.35
2018-07-25T14:55:39.187Z,26.21
2018-07-25T14:58:11.134Z,26.02
2018-07-25T15:00:43.434Z,25.97
2018-07-25T15:03:14.989Z,25.91
2018-07-25T15:05:47.674Z,25.81
2018-07-25T15:08:18.782Z,25.82
2018-07-25T15:10:50.125Z,25.75
2018-07-25T15:13:20.881Z,25.75
2018-07-25T15:15:52.403Z,25.74
2018-07-25T15:18:23.544Z,25.17
2018-07-25T15:20:58.185Z,24.91
2018-07-25T15:23:39.653Z,24.79
2018-07-25T15:26:10.810Z,24.69
2018-07-25T15:28:42.210Z,24.49
2018-07-25T15:31:13.393Z,24.58
2018-07-25T15:33:45.960Z,24.59
2018-07-25T15:36:49.799Z,24.53
2018-07-25T15:39:25.953Z,24.55
2018-07-25T15:41:58.808Z,24.66
2018-07-25T15:44:29.698Z,24.66
2018-07-25T15:47:00.843Z,24.67
2018-07-25T15:49:32.598Z,24.64
2018-07-25T15:52:03.730Z,24.61
2018-07-25T15:54:35.921Z,24.64
2018-07-25T15:57:07.224Z,24.68
2018-07-25T15:59:39.389Z,24.56
2018-07-25T16:02:11.276Z,24.24
2018-07-25T16:04:42.397Z,24.30
2018-07-25T16:07:13.585Z,24.27
2018-07-25T16:09:44.839Z,24.22
2018-07-25T16:12:16.691Z,24.37
2018-07-25T16:14:47.696Z,24.43
2018-07-25T16:17:19.466Z,24.56
2018-07-25T16:19:51.452Z,24.38
2018-07-25T16:22:22.585Z,24.44
2018-07-25T16:24:53.592Z,24.43
2018-07-25T16:27:25.268Z,24.34
2018-07-25T16:29:56.379Z,24.39
2018-07-25T16:32:27.575Z,24.34
2018-07-25T16:34:58.495Z,24.32
2018-07-25T16:37:30.806Z,24.32
2018-07-25T16:40:03.352Z,24.34
2018-07-25T16:42:34.449Z,24.39
2018-07-25T16:45:05.790Z,24.40
2018-07-25T16:47:38.777Z,24.39
2018-07-25T16:50:10.458Z,24.11
2018-07-25T16:52:43.348Z,24.00
2018-07-25T16:55:14.501Z,23.90
2018-07-25T16:57:45.595Z,23.98
2018-07-25T17:00:16.519Z,24.01
2018-07-25T17:02:47.612Z,23.91
2018-07-25T17:05:19.624Z,23.90
2018-07-25T17:07:50.556Z,23.90
2018-07-25T17:10:24.280Z,23.82
2018-07-25T17:12:56.256Z,23.63
2018-07-25T17:15:27.228Z,23.68
2018-07-25T17:17:59.030Z,23.56
2018-07-25T17:20:30.225Z,23.51
2018-07-25T17:23:02.346Z,23.45
2018-07-25T17:25:36.483Z,23.45
2018-07-25T17:28:07.556Z,23.35
2018-07-25T17:30:38.797Z,23.41
2018-07-25T17:33:10.882Z,23.31
2018-07-25T17:35:42.362Z,23.28
2018-07-25T17:38:13.477Z,23.29
2018-07-25T17:40:48.456Z,23.29
2018-07-25T17:43:19.675Z,23.18
2018-07-25T17:45:50.695Z,23.19
2018-07-25T17:48:22.170Z,23.09
2018-07-25T17:50:53.576Z,22.86
2018-07-25T17:53:25.957Z,22.71
2018-07-25T17:55:59.455Z,22.60
2018-07-25T17:58:30.832Z,22.15
2018-07-25T18:01:06.678Z,22.70
2018-07-25T18:03:37.884Z,22.71
2018-07-25T18:06:09.089Z,22.33
2018-07-25T18:08:41.731Z,22.63
2018-07-25T18:11:13.351Z,22.62
2018-07-25T18:13:49.370Z,22.60
2018-07-25T18:16:22.143Z,22.63
2018-07-25T18:18:53.825Z,22.53
2018-07-25T18:21:24.886Z,22.49
2018-07-25T18:23:56.474Z,22.40
2018-07-25T18:26:27.543Z,22.40
2018-07-25T18:28:59.486Z,22.29
2018-07-25T18:31:30.804Z,22.35
2018-07-25T18:34:03.519Z,22.31
2018-07-25T18:36:35.139Z,22.39
2018-07-25T18:39:09.274Z,22.34
2018-07-25T18:41:41.115Z,22.27
2018-07-25T18:44:12.093Z,22.27
2018-07-25T18:46:44.605Z,22.32
2018-07-25T18:49:17.595Z,22.24
2018-07-25T18:51:54.484Z,22.21
2018-07-25T18:54:25.737Z,22.20
2018-07-25T18:56:57.371Z,22.15
2018-07-25T18:59:28.361Z,22.10
2018-07-25T19:02:00.050Z,22.10
2018-07-25T19:04:31.009Z,22.07
2018-07-25T19:07:02.522Z,22.08
2018-07-25T19:09:33.615Z,21.98
2018-07-25T19:12:12.118Z,22.03
2018-07-25T19:14:49.433Z,22.03
2018-07-25T19:17:21.538Z,22.00
2018-07-25T19:19:52.843Z,22.09
2018-07-25T19:22:24.124Z,22.06
2018-07-25T19:24:57.197Z,22.04
2018-07-25T19:27:29.533Z,21.99
2018-07-25T19:30:00.507Z,22.04
2018-07-25T19:32:31.878Z,22.02
2018-07-25T19:35:03.115Z,21.92
2018-07-25T19:37:34.520Z,21.93
2018-07-25T19:40:10.386Z,21.87
2018-07-25T19:42:44.108Z,21.92
2018-07-25T19:45:16.812Z,21.98
2018-07-25T19:47:49.077Z,21.99
2018-07-25T19:52:55.658Z,21.97
2018-07-25T19:55:28.487Z,21.90
2018-07-25T19:57:59.802Z,21.81
2018-07-25T20:00:31.119Z,21.80
2018-07-25T20:03:03.526Z,21.75
2018-07-25T20:05:34.814Z,21.74
2018-07-25T20:08:06.726Z,21.77
2018-07-25T20:10:38.237Z,21.73
2018-07-25T20:13:09.793Z,21.73
2018-07-25T20:15:45.824Z,21.76
2018-07-25T20:18:17.236Z,21.70
2018-07-25T20:20:48.717Z,21.62
2018-07-25T20:23:20.641Z,21.59
2018-07-25T20:25:52.061Z,21.57
2018-07-25T20:28:25.163Z,21.66
2018-07-25T20:30:56.597Z,21.72
2018-07-25T20:33:27.880Z,21.77
2018-07-25T20:35:59.201Z,21.76
2018-07-25T20:38:30.685Z,21.74
2018-07-25T20:41:01.947Z,21.78
2018-07-25T20:43:33.376Z,21.89
2018-07-25T20:46:08.416Z,21.92
2018-07-25T20:48:39.674Z,21.96
2018-07-25T20:51:11.125Z,22.01
2018-07-25T20:53:42.350Z,22.08
2018-07-25T20:56:13.652Z,22.12
2018-07-25T20:58:46.637Z,22.14
2018-07-25T21:01:20.377Z,22.15
2018-07-25T21:03:52.211Z,22.14
2018-07-25T21:06:23.358Z,22.15
2018-07-25T21:08:54.619Z,22.24
2018-07-25T21:11:26.011Z,22.23
2018-07-25T21:13:57.213Z,22.20
2018-07-25T21:16:28.706Z,22.20
2018-07-25T21:19:00.083Z,22.18
2018-07-25T21:21:30.980Z,22.13
2018-07-25T21:24:02.073Z,22.19
2018-07-25T21:26:33.973Z,22.20
2018-07-25T21:29:05.156Z,22.14
2018-07-25T21:31:36.335Z,22.10
2018-07-25T21:34:07.689Z,22.10
2018-07-25T21:36:38.875Z,21.79
2018-07-25T21:39:12.603Z,22.13
2018-07-25T21:41:43.608Z,22.04
2018-07-25T21:44:14.878Z,21.95
2018-07-25T21:46:47.309Z,22.03
2018-07-25T21:49:18.689Z,21.93
2018-07-25T21:51:49.834Z,21.88
2018-07-25T21:54:21.029Z,21.97
2018-07-25T21:56:53.459Z,22.00
2018-07-25T21:59:24.803Z,21.92
2018-07-25T22:01:55.995Z,21.93
2018-07-25T22:04:27.261Z,21.94
2018-07-25T22:06:58.599Z,21.90
2018-07-25T22:09:29.472Z,21.85
2018-07-25T22:12:01.430Z,21.86
2018-07-25T22:14:32.283Z,21.87
2018-07-25T22:17:03.586Z,21.68
2018-07-25T22:19:34.565Z,21.80
2018-07-25T22:22:05.562Z,21.75
2018-07-25T22:24:36.753Z,21.79
2018-07-25T22:27:07.822Z,21.78
2018-07-25T22:29:38.993Z,21.72
2018-07-25T22:32:10.488Z,21.73
2018-07-25T22:34:41.537Z,21.68
2018-07-25T22:37:12.648Z,21.66
2018-07-25T22:39:43.695Z,21.57
2018-07-25T22:42:16.115Z,21.63
2018-07-25T22:44:47.511Z,21.55
2018-07-25T22:47:18.503Z,21.48
2018-07-25T22:49:49.532Z,21.45
2018-07-25T22:52:20.671Z,21.46
2018-07-25T22:54:51.772Z,21.43
2018-07-25T22:57:22.917Z,21.38
2018-07-25T22:59:54.129Z,21.44
2018-07-25T23:02:25.112Z,21.28
2018-07-25T23:04:56.376Z,21.35
2018-07-25T23:07:27.551Z,21.29
2018-07-25T23:09:59.563Z,21.24
2018-07-25T23:12:31.644Z,21.26
2018-07-25T23:15:02.724Z,21.33
2018-07-25T23:17:33.739Z,21.27
2018-07-25T23:20:04.890Z,21.23
2018-07-25T23:22:46.282Z,21.31
2018-07-25T23:25:17.693Z,21.25
2018-07-25T23:27:49.893Z,21.23
2018-07-25T23:30:21.659Z,21.19
2018-07-25T23:32:52.760Z,21.20
2018-07-25T23:35:23.875Z,21.15
2018-07-25T23:37:54.751Z,21.07
2018-07-25T23:40:25.930Z,21.12
2018-07-25T23:42:56.970Z,21.07
2018-07-25T23:45:27.924Z,21.00
2018-07-25T23:47:59.791Z,20.97
2018-07-25T23:50:30.718Z,21.04
2018-07-25T23:53:01.965Z,21.01
2018-07-25T23:55:32.803Z,20.95
2018-07-25T23:58:04.039Z,20.99
